createdAt,value
2019-06-27T00:00:53.083Z,0
2019-06-27T00:01:54.459Z,0
2019-06-27T00:02:55.835Z,0
2019-06-27T00:03:57.202Z,0
2019-06-27T00:04:58.573Z,0
2019-06-27T00:05:59.944Z,0
2019-06-27T00:07:01.319Z,0
2019-06-27T00:08:02.696Z,0
2019-06-27T00:09:04.074Z,0
2019-06-27T00:10:05.437Z,0
2019-06-27T00:11:06.823Z,0
2019-06-27T00:12:08.179Z,0
2019-06-27T00:13:09.551Z,0
2019-06-27T00:14:10.931Z,0
2019-06-27T00:15:12.295Z,0
2019-06-27T00:16:13.669Z,0
2019-06-27T00:17:15.058Z,0
2019-06-27T00:18:16.416Z,0
2019-06-27T00:19:17.791Z,0
2019-06-27T00:20:19.162Z,0
2019-06-27T00:21:20.537Z,0
2019-06-27T00:22:21.906Z,0
2019-06-27T00:23:23.279Z,0
2019-06-27T00:24:24.655Z,0
2019-06-27T00:25:26.022Z,0
2019-06-27T00:26:27.394Z,0
2019-06-27T00:27:28.781Z,0
2019-06-27T00:28:30.140Z,0
2019-06-27T00:29:31.524Z,0
2019-06-27T00:30:32.902Z,0
2019-06-27T00:31:34.269Z,0
2019-06-27T00:32:35.639Z,0
2019-06-27T00:33:37.008Z,0
2019-06-27T00:34:38.380Z,0
2019-06-27T00:35:39.752Z,0
2019-06-27T00:36:41.124Z,0
2019-06-27T00:37:42.497Z,0
2019-06-27T00:38:43.870Z,0
2019-06-27T00:39:45.240Z,0
2019-06-27T00:40:46.611Z,0
2019-06-27T00:41:47.981Z,0
2019-06-27T00:42:49.355Z,0
2019-06-27T00:43:50.724Z,0
2019-06-27T00:44:52.101Z,0
2019-06-27T00:45:53.472Z,0
2019-06-27T00:46:54.842Z,0
2019-06-27T00:47:56.211Z,0
2019-06-27T00:48:57.584Z,0
2019-06-27T00:49:58.956Z,0
2019-06-27T00:51:00.329Z,0
2019-06-27T00:52:01.768Z,0
2019-06-27T00:53:03.042Z,0
2019-06-27T00:54:04.409Z,0
2019-06-27T00:55:05.777Z,0
2019-06-27T00:56:07.162Z,0
2019-06-27T00:57:14.139Z,0
2019-06-27T00:58:09.851Z,0
2019-06-27T00:59:11.230Z,0
2019-06-27T01:00:12.609Z,0
2019-06-27T01:01:13.963Z,0
2019-06-27T01:02:15.344Z,0
2019-06-27T01:03:16.710Z,0
2019-06-27T01:04:18.086Z,0
2019-06-27T01:05:19.456Z,0
2019-06-27T01:06:20.827Z,0
2019-06-27T01:07:22.199Z,0
2019-06-27T01:08:23.575Z,0
2019-06-27T01:09:24.944Z,0
2019-06-27T01:10:26.313Z,0
2019-06-27T01:11:27.683Z,0
2019-06-27T01:12:29.055Z,0
2019-06-27T01:13:30.428Z,0
2019-06-27T01:14:31.804Z,0
2019-06-27T01:15:33.172Z,0
2019-06-27T01:16:34.544Z,0
2019-06-27T01:17:35.924Z,0
2019-06-27T01:18:37.289Z,0
2019-06-27T01:19:38.745Z,0
2019-06-27T01:20:40.039Z,0
2019-06-27T01:21:41.415Z,0
2019-06-27T01:22:42.784Z,0
2019-06-27T01:23:45.143Z,0
2019-06-27T01:24:45.489Z,0
2019-06-27T01:25:46.859Z,0
2019-06-27T01:26:48.230Z,0
2019-06-27T01:27:49.602Z,0
2019-06-27T01:28:50.974Z,0
2019-06-27T01:29:52.342Z,0
2019-06-27T01:30:53.751Z,0
2019-06-27T01:31:55.116Z,0
2019-06-27T01:32:56.487Z,0
2019-06-27T01:33:57.860Z,0
2019-06-27T01:34:59.249Z,0
2019-06-27T01:36:00.605Z,0
2019-06-27T01:37:02.070Z,0
2019-06-27T01:38:03.314Z,0
2019-06-27T01:39:04.681Z,0
2019-06-27T01:40:06.054Z,0
2019-06-27T01:41:07.425Z,0
2019-06-27T01:42:08.799Z,0
2019-06-27T01:43:10.168Z,0
2019-06-27T01:44:11.537Z,0
2019-06-27T01:45:12.908Z,0
2019-06-27T01:46:14.282Z,0
2019-06-27T01:47:15.649Z,0
2019-06-27T01:48:17.022Z,0
2019-06-27T01:49:18.395Z,0
2019-06-27T01:50:19.766Z,0
2019-06-27T01:51:21.145Z,0
2019-06-27T01:52:22.512Z,0
2019-06-27T01:53:23.877Z,0
2019-06-27T01:54:25.259Z,0
2019-06-27T01:55:26.618Z,0
2019-06-27T01:56:27.989Z,0
2019-06-27T01:57:42.338Z,0
2019-06-27T01:58:30.700Z,0
2019-06-27T01:59:32.073Z,0
2019-06-27T02:00:33.442Z,0
2019-06-27T02:01:34.811Z,0
2019-06-27T02:02:36.189Z,0
2019-06-27T02:03:37.574Z,0
2019-06-27T02:04:38.928Z,0
2019-06-27T02:05:40.301Z,0
2019-06-27T02:06:41.673Z,0
2019-06-27T02:07:43.041Z,0
2019-06-27T02:08:44.412Z,0
2019-06-27T02:09:45.783Z,0
2019-06-27T02:10:47.155Z,0
2019-06-27T02:11:48.527Z,0
2019-06-27T02:12:49.898Z,0
2019-06-27T02:13:51.266Z,0
2019-06-27T02:14:52.635Z,0
2019-06-27T02:15:54.016Z,0
2019-06-27T02:16:55.379Z,0
2019-06-27T02:17:56.756Z,0
2019-06-27T02:18:58.128Z,0
2019-06-27T02:19:59.504Z,0
2019-06-27T02:21:00.874Z,0
2019-06-27T02:22:02.289Z,0
2019-06-27T02:23:03.578Z,0
2019-06-27T02:24:04.949Z,0
2019-06-27T02:25:06.321Z,0
2019-06-27T02:26:07.694Z,0
2019-06-27T02:27:09.066Z,0
2019-06-27T02:28:10.437Z,0
2019-06-27T02:29:11.807Z,0
2019-06-27T02:30:13.179Z,0
2019-06-27T02:31:14.551Z,4
2019-06-27T02:32:15.988Z,4
2019-06-27T02:33:17.297Z,4
2019-06-27T02:34:18.667Z,0
2019-06-27T02:35:20.035Z,0
2019-06-27T02:36:21.415Z,4
2019-06-27T02:37:22.779Z,4
2019-06-27T02:38:24.179Z,4
2019-06-27T02:39:25.534Z,4
2019-06-27T02:40:26.897Z,4
2019-06-27T02:41:28.264Z,4
2019-06-27T02:42:29.653Z,4
2019-06-27T02:43:31.004Z,4
2019-06-27T02:44:32.377Z,8
2019-06-27T02:45:33.744Z,8
2019-06-27T02:46:35.125Z,8
2019-06-27T02:47:36.493Z,8
2019-06-27T02:48:37.861Z,12
2019-06-27T02:49:39.234Z,12
2019-06-27T02:50:40.658Z,16
2019-06-27T02:51:41.948Z,16
2019-06-27T02:52:43.320Z,16
2019-06-27T02:53:44.695Z,20
2019-06-27T02:54:46.064Z,24
2019-06-27T02:55:47.437Z,24
2019-06-27T02:56:48.823Z,28
2019-06-27T02:57:50.191Z,28
2019-06-27T02:58:51.565Z,32
2019-06-27T02:59:52.946Z,40
2019-06-27T03:00:54.310Z,40
2019-06-27T03:01:55.683Z,44
2019-06-27T03:02:57.052Z,48
2019-06-27T03:03:58.426Z,52
2019-06-27T03:04:59.799Z,60
2019-06-27T03:06:01.169Z,64
2019-06-27T03:07:02.550Z,72
2019-06-27T03:08:04.991Z,80
2019-06-27T03:09:06.333Z,92
2019-06-27T03:10:07.703Z,96
2019-06-27T03:11:09.076Z,104
2019-06-27T03:12:10.452Z,108
2019-06-27T03:13:11.828Z,112
2019-06-27T03:14:13.195Z,120
2019-06-27T03:15:14.567Z,132
2019-06-27T03:16:15.945Z,148
2019-06-27T03:17:17.319Z,156
2019-06-27T03:18:18.693Z,168
2019-06-27T03:19:20.076Z,176
2019-06-27T03:20:21.440Z,192
2019-06-27T03:21:22.821Z,204
2019-06-27T03:22:24.191Z,208
2019-06-27T03:23:25.572Z,224
2019-06-27T03:24:26.938Z,240
2019-06-27T03:25:28.321Z,256
2019-06-27T03:26:29.688Z,268
2019-06-27T03:27:31.062Z,276
2019-06-27T03:28:50.703Z,288
2019-06-27T03:29:33.774Z,308
2019-06-27T03:30:35.148Z,324
2019-06-27T03:31:36.520Z,344
2019-06-27T03:32:37.897Z,368
2019-06-27T03:33:39.277Z,392
2019-06-27T03:34:40.644Z,408
2019-06-27T03:35:42.025Z,420
2019-06-27T03:36:43.399Z,440
2019-06-27T03:37:44.777Z,468
2019-06-27T03:38:46.149Z,484
2019-06-27T03:39:47.526Z,500
2019-06-27T03:40:48.899Z,504
2019-06-27T03:41:50.273Z,524
2019-06-27T03:42:51.650Z,524
2019-06-27T03:43:53.026Z,532
2019-06-27T03:44:54.405Z,556
2019-06-27T03:45:55.833Z,588
2019-06-27T03:46:57.145Z,624
2019-06-27T03:47:58.521Z,680
2019-06-27T03:48:59.895Z,720
2019-06-27T03:50:01.283Z,748
2019-06-27T03:51:02.647Z,772
2019-06-27T03:52:04.024Z,824
2019-06-27T03:53:05.392Z,880
2019-06-27T03:54:06.769Z,908
2019-06-27T03:55:08.148Z,932
2019-06-27T03:56:09.522Z,1004
2019-06-27T03:57:10.897Z,1104
2019-06-27T03:58:12.276Z,1140
2019-06-27T03:59:13.955Z,1124
2019-06-27T04:00:14.994Z,1096
2019-06-27T04:01:16.365Z,1104
2019-06-27T04:02:17.741Z,1124
2019-06-27T04:03:19.116Z,1128
2019-06-27T04:04:20.494Z,1108
2019-06-27T04:05:21.870Z,1120
2019-06-27T04:06:23.246Z,1140
2019-06-27T04:07:24.622Z,1148
2019-06-27T04:08:25.996Z,1180
2019-06-27T04:09:27.369Z,1224
2019-06-27T04:10:28.744Z,1260
2019-06-27T04:11:30.121Z,1268
2019-06-27T04:12:31.502Z,1256
2019-06-27T04:13:32.875Z,1304
2019-06-27T04:14:34.247Z,1544
2019-06-27T04:15:35.624Z,1632
2019-06-27T04:16:36.997Z,1796
2019-06-27T04:17:38.376Z,1876
2019-06-27T04:18:39.752Z,1904
2019-06-27T04:19:41.124Z,1964
2019-06-27T04:20:42.502Z,2164
2019-06-27T04:21:43.878Z,2184
2019-06-27T04:22:45.271Z,2208
2019-06-27T04:23:46.628Z,2384
2019-06-27T04:24:48.006Z,2480
2019-06-27T04:25:49.386Z,2500
2019-06-27T04:26:50.761Z,2512
2019-06-27T04:27:52.141Z,2564
2019-06-27T04:28:53.517Z,2536
2019-06-27T04:29:54.887Z,2552
2019-06-27T04:30:56.271Z,2744
2019-06-27T04:31:57.647Z,2916
2019-06-27T04:32:59.023Z,3028
2019-06-27T04:34:00.460Z,3048
2019-06-27T04:35:01.778Z,3008
2019-06-27T04:36:03.154Z,2968
2019-06-27T04:37:04.537Z,3100
2019-06-27T04:38:05.906Z,3284
2019-06-27T04:39:07.282Z,3352
2019-06-27T04:40:08.667Z,3368
2019-06-27T04:41:10.131Z,3620
2019-06-27T04:42:11.449Z,3952
2019-06-27T04:43:12.813Z,3872
2019-06-27T04:44:14.192Z,3504
2019-06-27T04:45:15.573Z,3260
2019-06-27T04:46:16.948Z,3180
2019-06-27T04:47:18.341Z,3276
2019-06-27T04:48:19.714Z,3424
2019-06-27T04:49:21.093Z,3640
2019-06-27T04:50:22.479Z,4012
2019-06-27T04:51:23.845Z,4260
2019-06-27T04:52:25.224Z,4176
2019-06-27T04:53:26.599Z,4200
2019-06-27T04:54:27.980Z,4192
2019-06-27T04:55:29.406Z,4056
2019-06-27T04:56:30.772Z,3996
2019-06-27T04:57:32.144Z,4148
2019-06-27T04:58:33.525Z,4328
2019-06-27T04:59:51.513Z,4492
2019-06-27T05:00:36.235Z,4760
2019-06-27T05:01:37.615Z,4960
2019-06-27T05:02:39.011Z,5032
2019-06-27T05:03:40.371Z,5028
2019-06-27T05:04:41.746Z,4932
2019-06-27T05:05:43.124Z,4908
2019-06-27T05:06:44.499Z,5052
2019-06-27T05:07:45.881Z,5324
2019-06-27T05:08:47.256Z,5192
2019-06-27T05:09:48.641Z,5040
2019-06-27T05:10:50.018Z,5268
2019-06-27T05:11:51.412Z,5712
2019-06-27T05:12:52.842Z,5824
2019-06-27T05:13:54.191Z,5636
2019-06-27T05:14:55.571Z,5360
2019-06-27T05:15:56.946Z,5160
2019-06-27T05:16:58.338Z,4988
2019-06-27T05:17:59.701Z,4972
2019-06-27T05:19:01.084Z,5044
2019-06-27T05:20:03.400Z,5268
2019-06-27T05:21:03.797Z,5568
2019-06-27T05:22:05.172Z,6104
2019-06-27T05:23:06.555Z,6332
2019-06-27T05:24:07.937Z,6444
2019-06-27T05:25:09.319Z,6668
2019-06-27T05:26:10.688Z,6896
2019-06-27T05:27:12.064Z,7040
2019-06-27T05:28:13.439Z,6828
2019-06-27T05:29:14.820Z,6916
2019-06-27T05:30:16.195Z,6672
2019-06-27T05:31:17.573Z,6116
2019-06-27T05:32:18.952Z,6208
2019-06-27T05:33:20.350Z,5892
2019-06-27T05:34:21.716Z,5400
2019-06-27T05:35:23.093Z,5388
2019-06-27T05:36:24.484Z,5368
2019-06-27T05:37:25.846Z,6420
2019-06-27T05:38:27.227Z,6936
2019-06-27T05:39:28.605Z,5792
2019-06-27T05:40:29.982Z,6156
2019-06-27T05:41:31.356Z,5896
2019-06-27T05:42:32.733Z,5504
2019-06-27T05:43:34.114Z,5272
2019-06-27T05:44:35.501Z,5144
2019-06-27T05:45:36.864Z,5348
2019-06-27T05:46:38.242Z,6032
2019-06-27T05:47:39.619Z,6080
2019-06-27T05:48:40.991Z,6440
2019-06-27T05:49:42.367Z,8476
2019-06-27T05:50:43.744Z,7420
2019-06-27T05:51:45.128Z,9480
2019-06-27T05:52:46.499Z,7012
2019-06-27T05:53:47.879Z,6248
2019-06-27T05:54:49.252Z,5644
2019-06-27T05:55:50.632Z,5668
2019-06-27T05:56:52.006Z,5396
2019-06-27T05:57:53.381Z,6072
2019-06-27T05:58:54.756Z,5968
2019-06-27T05:59:56.137Z,6968
2019-06-27T06:00:57.518Z,9336
2019-06-27T06:01:58.894Z,8620
2019-06-27T06:03:00.283Z,9172
2019-06-27T06:04:01.660Z,10804
2019-06-27T06:05:03.058Z,10380
2019-06-27T06:06:04.417Z,10196
2019-06-27T06:07:05.796Z,10136
2019-06-27T06:08:07.178Z,14108
2019-06-27T06:09:08.559Z,17280
2019-06-27T06:10:09.936Z,17728
2019-06-27T06:11:11.311Z,18208
2019-06-27T06:12:12.691Z,18016
2019-06-27T06:13:14.075Z,17728
2019-06-27T06:14:15.453Z,18464
2019-06-27T06:15:16.835Z,18944
2019-06-27T06:16:18.215Z,17696
2019-06-27T06:17:19.595Z,16128
2019-06-27T06:18:20.972Z,15424
2019-06-27T06:19:22.355Z,15776
2019-06-27T06:20:23.733Z,17152
2019-06-27T06:21:25.131Z,18528
2019-06-27T06:22:26.503Z,20160
2019-06-27T06:23:27.879Z,20480
2019-06-27T06:24:29.259Z,20160
2019-06-27T06:25:30.639Z,20128
2019-06-27T06:26:32.019Z,20672
2019-06-27T06:27:33.402Z,21568
2019-06-27T06:28:34.789Z,22048
2019-06-27T06:29:36.168Z,18528
2019-06-27T06:30:44.463Z,14068
2019-06-27T06:31:38.890Z,20416
2019-06-27T06:32:40.272Z,22816
2019-06-27T06:33:41.655Z,17792
2019-06-27T06:34:43.033Z,17632
2019-06-27T06:35:44.421Z,15648
2019-06-27T06:36:45.808Z,17440
2019-06-27T06:37:47.253Z,22720
2019-06-27T06:38:48.573Z,22400
2019-06-27T06:39:49.957Z,21856
2019-06-27T06:40:51.339Z,21888
2019-06-27T06:41:52.745Z,22336
2019-06-27T06:42:56.975Z,14520
2019-06-27T06:43:55.456Z,15712
2019-06-27T06:44:56.836Z,20064
2019-06-27T06:45:58.225Z,22752
2019-06-27T06:46:59.651Z,23680
2019-06-27T06:48:01.047Z,21152
2019-06-27T06:49:02.430Z,19296
2019-06-27T06:50:03.812Z,14748
2019-06-27T06:51:05.199Z,10172
2019-06-27T06:52:06.588Z,9832
2019-06-27T06:53:07.985Z,11564
2019-06-27T06:54:09.359Z,21344
2019-06-27T06:55:10.732Z,19328
2019-06-27T06:56:12.119Z,17728
2019-06-27T06:57:13.501Z,23616
2019-06-27T06:58:14.885Z,23808
2019-06-27T06:59:16.266Z,25440
2019-06-27T07:00:17.653Z,28096
2019-06-27T07:01:19.034Z,28832
2019-06-27T07:02:20.419Z,34656
2019-06-27T07:03:21.806Z,34144
2019-06-27T07:04:23.192Z,41600
2019-06-27T07:05:24.575Z,41536
2019-06-27T07:06:25.965Z,42304
2019-06-27T07:07:27.343Z,47008
2019-06-27T07:08:28.754Z,53440
2019-06-27T07:09:30.111Z,65728
2019-06-27T07:10:31.493Z,86752
2019-06-27T07:11:32.881Z,103232
2019-06-27T07:12:34.266Z,97824
2019-06-27T07:13:35.650Z,78016
2019-06-27T07:14:37.035Z,63616
2019-06-27T07:15:38.423Z,56544
2019-06-27T07:16:39.805Z,51264
2019-06-27T07:17:41.187Z,35072
2019-06-27T07:18:42.574Z,44320
2019-06-27T07:19:43.958Z,29152
2019-06-27T07:20:45.343Z,36640
2019-06-27T07:21:46.726Z,35744
2019-06-27T07:22:48.148Z,36960
2019-06-27T07:23:49.679Z,34528
2019-06-27T07:24:50.847Z,23744
2019-06-27T07:25:52.233Z,15072
2019-06-27T07:26:53.632Z,19648
2019-06-27T07:27:55.005Z,16352
2019-06-27T07:28:56.388Z,18784
2019-06-27T07:29:57.770Z,30528
2019-06-27T07:30:59.155Z,29632
2019-06-27T07:32:00.539Z,29344
2019-06-27T07:33:01.933Z,28544
2019-06-27T07:34:03.314Z,28224
2019-06-27T07:35:04.698Z,28800
2019-06-27T07:36:06.080Z,29664
2019-06-27T07:37:07.465Z,28864
2019-06-27T07:38:08.848Z,27456
2019-06-27T07:39:10.242Z,27072
2019-06-27T07:40:11.621Z,28128
2019-06-27T07:41:13.008Z,28640
2019-06-27T07:42:14.394Z,29952
2019-06-27T07:43:15.778Z,32128
2019-06-27T07:44:20.065Z,33824
2019-06-27T07:45:18.512Z,32992
2019-06-27T07:46:25.268Z,33024
2019-06-27T07:47:21.242Z,32128
2019-06-27T07:48:22.630Z,31936
2019-06-27T07:49:24.014Z,31040
2019-06-27T07:50:25.405Z,30336
2019-06-27T07:51:27.064Z,30752
2019-06-27T07:52:28.168Z,33920
2019-06-27T07:53:29.556Z,34208
2019-06-27T07:54:30.949Z,32480
2019-06-27T07:55:32.326Z,32160
2019-06-27T07:56:33.710Z,34176
2019-06-27T07:57:35.097Z,37056
2019-06-27T07:58:36.496Z,42528
2019-06-27T07:59:37.862Z,47904
2019-06-27T08:00:39.250Z,45984
2019-06-27T08:01:40.637Z,39328
2019-06-27T08:02:42.025Z,34304
2019-06-27T08:03:43.404Z,31168
2019-06-27T08:04:44.791Z,27360
2019-06-27T08:05:46.178Z,24480
2019-06-27T08:06:47.565Z,23552
2019-06-27T08:07:48.971Z,22496
2019-06-27T08:08:50.383Z,21120
2019-06-27T08:09:51.755Z,19648
2019-06-27T08:10:53.142Z,18304
2019-06-27T08:11:54.518Z,17024
2019-06-27T08:12:55.907Z,16160
2019-06-27T08:13:57.289Z,15296
2019-06-27T08:14:58.676Z,14704
2019-06-27T08:16:00.059Z,14360
2019-06-27T08:17:01.444Z,14136
2019-06-27T08:18:02.831Z,14076
2019-06-27T08:19:04.213Z,14072
2019-06-27T08:20:05.600Z,14088
2019-06-27T08:21:06.983Z,14076
2019-06-27T08:22:08.369Z,13980
2019-06-27T08:23:09.763Z,13748
2019-06-27T08:24:11.147Z,13664
2019-06-27T08:25:12.531Z,13724
2019-06-27T08:26:13.917Z,13688
2019-06-27T08:27:15.304Z,13616
2019-06-27T08:28:16.692Z,13816
2019-06-27T08:29:18.076Z,13932
2019-06-27T08:30:19.463Z,13928
2019-06-27T08:31:20.850Z,13932
2019-06-27T08:32:22.231Z,13908
2019-06-27T08:33:23.617Z,13924
2019-06-27T08:34:25.014Z,13876
2019-06-27T08:35:26.385Z,13856
2019-06-27T08:36:27.769Z,13836
2019-06-27T08:37:29.156Z,13980
2019-06-27T08:38:30.557Z,14072
2019-06-27T08:39:31.930Z,14112
2019-06-27T08:40:33.312Z,14100
2019-06-27T08:41:34.702Z,14160
2019-06-27T08:42:36.089Z,14204
2019-06-27T08:43:37.477Z,14260
2019-06-27T08:44:38.873Z,14240
2019-06-27T08:45:40.257Z,14332
2019-06-27T08:46:41.639Z,14388
2019-06-27T08:47:43.027Z,14420
2019-06-27T08:48:44.410Z,14404
2019-06-27T08:49:45.795Z,14372
2019-06-27T08:50:47.179Z,14476
2019-06-27T08:51:48.630Z,14592
2019-06-27T08:52:49.955Z,14696
2019-06-27T08:53:51.338Z,14796
2019-06-27T08:54:52.724Z,14868
2019-06-27T08:55:54.115Z,14896
2019-06-27T08:56:55.490Z,15020
2019-06-27T08:57:56.877Z,15144
2019-06-27T08:58:58.264Z,15236
2019-06-27T08:59:59.652Z,15520
2019-06-27T09:01:01.043Z,15680
2019-06-27T09:02:08.554Z,15840
2019-06-27T09:03:03.785Z,15968
2019-06-27T09:04:05.180Z,16192
2019-06-27T09:05:06.547Z,16480
2019-06-27T09:06:07.943Z,16864
2019-06-27T09:07:09.329Z,18880
2019-06-27T09:08:10.718Z,46208
2019-06-27T09:09:12.094Z,76256
2019-06-27T09:10:13.485Z,79904
2019-06-27T09:11:14.865Z,80224
2019-06-27T09:12:16.253Z,78336
2019-06-27T09:13:17.642Z,77376
2019-06-27T09:14:19.029Z,78848
2019-06-27T09:15:20.426Z,78464
2019-06-27T09:16:21.800Z,77120
2019-06-27T09:17:23.195Z,77088
2019-06-27T09:18:24.583Z,78784
2019-06-27T09:19:25.979Z,78016
2019-06-27T09:20:27.381Z,78368
2019-06-27T09:21:28.743Z,79200
2019-06-27T09:22:30.128Z,80960
2019-06-27T09:23:31.516Z,80672
2019-06-27T09:24:32.900Z,82528
2019-06-27T09:25:34.290Z,81888
2019-06-27T09:26:35.679Z,82880
2019-06-27T09:27:37.210Z,84800
2019-06-27T09:28:38.439Z,83200
2019-06-27T09:29:39.806Z,82048
2019-06-27T09:30:41.197Z,84160
2019-06-27T09:31:42.598Z,84064
2019-06-27T09:32:43.989Z,85312
2019-06-27T09:33:45.428Z,85408
2019-06-27T09:34:46.779Z,84960
2019-06-27T09:35:48.171Z,84128
2019-06-27T09:36:49.557Z,82720
2019-06-27T09:37:50.947Z,84512
2019-06-27T09:38:52.336Z,86624
2019-06-27T09:39:53.725Z,84608
2019-06-27T09:40:55.119Z,83328
2019-06-27T09:41:56.505Z,85952
2019-06-27T09:42:57.896Z,85408
2019-06-27T09:43:59.299Z,83904
2019-06-27T09:45:00.675Z,87840
2019-06-27T09:46:02.065Z,87840
2019-06-27T09:47:03.459Z,87136
2019-06-27T09:48:04.851Z,87616
2019-06-27T09:49:06.244Z,90688
2019-06-27T09:50:07.639Z,89568
2019-06-27T09:51:09.030Z,87136
2019-06-27T09:52:10.421Z,90912
2019-06-27T09:53:11.807Z,91200
2019-06-27T09:54:13.198Z,91680
2019-06-27T09:55:14.594Z,84000
2019-06-27T09:56:15.982Z,82656
2019-06-27T09:57:17.374Z,90912
2019-06-27T09:58:18.762Z,93568
2019-06-27T09:59:20.156Z,92608
2019-06-27T10:00:21.544Z,91264
2019-06-27T10:01:22.938Z,88960
2019-06-27T10:02:37.304Z,92384
2019-06-27T10:03:25.683Z,91424
2019-06-27T10:04:27.038Z,93280
2019-06-27T10:05:28.422Z,94560
2019-06-27T10:06:29.813Z,93600
2019-06-27T10:07:31.203Z,91264
2019-06-27T10:08:32.595Z,89984
2019-06-27T10:09:33.984Z,91616
2019-06-27T10:10:35.378Z,93472
2019-06-27T10:11:36.770Z,93568
2019-06-27T10:12:42.887Z,90976
2019-06-27T10:13:39.517Z,92416
2019-06-27T10:14:40.907Z,91392
2019-06-27T10:15:42.299Z,90592
2019-06-27T10:16:43.693Z,90016
2019-06-27T10:17:45.093Z,90688
2019-06-27T10:18:46.477Z,91520
2019-06-27T10:19:47.869Z,92032
2019-06-27T10:20:49.259Z,89600
2019-06-27T10:21:50.651Z,89856
2019-06-27T10:22:52.045Z,91328
2019-06-27T10:23:53.438Z,91616
2019-06-27T10:24:54.831Z,92096
2019-06-27T10:25:56.225Z,92352
2019-06-27T10:26:57.617Z,91008
2019-06-27T10:27:59.005Z,90400
2019-06-27T10:29:00.405Z,93248
2019-06-27T10:30:01.791Z,93280
2019-06-27T10:31:03.184Z,93984
2019-06-27T10:32:04.581Z,93088
2019-06-27T10:33:05.976Z,94624
2019-06-27T10:34:07.365Z,93056
2019-06-27T10:35:08.756Z,92512
2019-06-27T10:36:10.151Z,94368
2019-06-27T10:37:11.543Z,96128
2019-06-27T10:38:12.934Z,98976
2019-06-27T10:39:14.332Z,96640
2019-06-27T10:40:15.723Z,97952
2019-06-27T10:41:17.113Z,99936
2019-06-27T10:42:18.512Z,101984
2019-06-27T10:43:19.903Z,102880
2019-06-27T10:44:21.310Z,101280
2019-06-27T10:45:22.707Z,100992
2019-06-27T10:46:24.103Z,99552
2019-06-27T10:47:25.497Z,97728
2019-06-27T10:48:26.891Z,99456
2019-06-27T10:49:28.303Z,100160
2019-06-27T10:50:29.745Z,101184
2019-06-27T10:51:31.201Z,99360
2019-06-27T10:52:32.468Z,98720
2019-06-27T10:53:33.863Z,100832
2019-06-27T10:54:35.260Z,102624
2019-06-27T10:55:36.664Z,101376
2019-06-27T10:56:39.989Z,100032
2019-06-27T10:57:39.622Z,102176
2019-06-27T10:58:41.020Z,102752
2019-06-27T10:59:42.584Z,100896
2019-06-27T11:00:43.979Z,97952
2019-06-27T11:01:45.374Z,103552
2019-06-27T11:02:46.767Z,104352
2019-06-27T11:03:48.161Z,105536
2019-06-27T11:04:49.555Z,107584
2019-06-27T11:05:50.952Z,108896
2019-06-27T11:06:52.344Z,107424
2019-06-27T11:07:53.741Z,107744
2019-06-27T11:08:55.136Z,108608
2019-06-27T11:09:56.530Z,107648
2019-06-27T11:10:57.924Z,107136
2019-06-27T11:11:59.322Z,109760
2019-06-27T11:13:00.716Z,108224
2019-06-27T11:14:02.109Z,107360
2019-06-27T11:15:03.507Z,108736
2019-06-27T11:16:04.904Z,103712
2019-06-27T11:17:06.298Z,106368
2019-06-27T11:18:07.700Z,108544
2019-06-27T11:19:09.107Z,107680
2019-06-27T11:20:10.488Z,107392
2019-06-27T11:21:13.875Z,108864
2019-06-27T11:22:13.249Z,105344
2019-06-27T11:23:14.642Z,104960
2019-06-27T11:24:16.031Z,107616
2019-06-27T11:25:17.429Z,105216
2019-06-27T11:26:18.826Z,106304
2019-06-27T11:27:20.230Z,106880
2019-06-27T11:28:21.616Z,106240
2019-06-27T11:29:23.013Z,103776
2019-06-27T11:30:24.410Z,103840
2019-06-27T11:31:25.813Z,102848
2019-06-27T11:32:27.198Z,103360
2019-06-27T11:33:32.386Z,101664
2019-06-27T11:34:29.950Z,99520
2019-06-27T11:35:31.347Z,101216
2019-06-27T11:36:32.744Z,104384
2019-06-27T11:37:34.138Z,103328
2019-06-27T11:38:35.534Z,101792
2019-06-27T11:39:36.928Z,103072
2019-06-27T11:40:38.323Z,103424
2019-06-27T11:41:39.721Z,101984
2019-06-27T11:42:41.113Z,104192
2019-06-27T11:43:42.508Z,104128
2019-06-27T11:44:43.906Z,102784
2019-06-27T11:45:45.302Z,104896
2019-06-27T11:46:46.700Z,106528
2019-06-27T11:47:48.094Z,103200
2019-06-27T11:48:49.492Z,102368
2019-06-27T11:49:50.887Z,105632
2019-06-27T11:50:52.366Z,105344
2019-06-27T11:51:53.646Z,103360
2019-06-27T11:52:55.043Z,103936
2019-06-27T11:53:56.438Z,100544
2019-06-27T11:54:57.838Z,98752
2019-06-27T11:55:59.331Z,99136
2019-06-27T11:57:00.725Z,101376
2019-06-27T11:58:02.125Z,99328
2019-06-27T11:59:03.517Z,99584
2019-06-27T12:00:04.918Z,99008
2019-06-27T12:01:06.376Z,94496
2019-06-27T12:02:07.703Z,93344
2019-06-27T12:03:09.098Z,96576
2019-06-27T12:04:10.494Z,92992
2019-06-27T12:05:11.893Z,93184
2019-06-27T12:06:13.279Z,96192
2019-06-27T12:07:14.683Z,98272
2019-06-27T12:08:16.103Z,99456
2019-06-27T12:09:17.472Z,97632
2019-06-27T12:10:18.874Z,98144
2019-06-27T12:11:20.265Z,99520
2019-06-27T12:12:21.662Z,98400
2019-06-27T12:13:23.058Z,103232
2019-06-27T12:14:24.456Z,104000
2019-06-27T12:15:25.887Z,102176
2019-06-27T12:16:27.241Z,99392
2019-06-27T12:17:28.636Z,101856
2019-06-27T12:18:30.047Z,100384
2019-06-27T12:19:31.430Z,99808
2019-06-27T12:20:32.823Z,99776
2019-06-27T12:21:34.220Z,99776
2019-06-27T12:22:35.612Z,100768
2019-06-27T12:23:37.006Z,97952
2019-06-27T12:24:38.398Z,97984
2019-06-27T12:25:39.795Z,98016
2019-06-27T12:26:41.192Z,99040
2019-06-27T12:27:42.595Z,98016
2019-06-27T12:28:43.980Z,97312
2019-06-27T12:29:45.373Z,96480
2019-06-27T12:30:46.774Z,92960
2019-06-27T12:31:51.345Z,94336
2019-06-27T12:32:52.453Z,98080
2019-06-27T12:34:05.701Z,97184
2019-06-27T12:34:52.236Z,99136
2019-06-27T12:35:53.634Z,97536
2019-06-27T12:36:55.028Z,93984
2019-06-27T12:37:56.419Z,88736
2019-06-27T12:38:57.815Z,88032
2019-06-27T12:39:59.209Z,85888
2019-06-27T12:41:00.609Z,87680
2019-06-27T12:42:02.009Z,95456
2019-06-27T12:43:03.408Z,97376
2019-06-27T12:44:04.796Z,95424
2019-06-27T12:45:06.188Z,96352
2019-06-27T12:46:07.584Z,96000
2019-06-27T12:47:08.980Z,96512
2019-06-27T12:48:10.387Z,96160
2019-06-27T12:49:11.772Z,99584
2019-06-27T12:50:13.171Z,101248
2019-06-27T12:51:14.562Z,99872
2019-06-27T12:52:15.964Z,98432
2019-06-27T12:53:17.363Z,99200
2019-06-27T12:54:18.772Z,102560
2019-06-27T12:55:20.188Z,103712
2019-06-27T12:56:21.571Z,103680
2019-06-27T12:57:22.956Z,101568
2019-06-27T12:58:24.353Z,103616
2019-06-27T12:59:25.753Z,106336
2019-06-27T13:00:27.145Z,107968
2019-06-27T13:01:28.540Z,108768
2019-06-27T13:02:29.936Z,105728
2019-06-27T13:03:31.389Z,105024
2019-06-27T13:04:32.728Z,106976
2019-06-27T13:05:34.125Z,106912
2019-06-27T13:06:35.524Z,109984
2019-06-27T13:07:36.913Z,110464
2019-06-27T13:08:38.310Z,110336
2019-06-27T13:09:39.710Z,108672
2019-06-27T13:10:41.113Z,108992
2019-06-27T13:11:42.660Z,106784
2019-06-27T13:12:44.058Z,107744
2019-06-27T13:13:45.446Z,108096
2019-06-27T13:14:46.841Z,107072
2019-06-27T13:15:48.237Z,103968
2019-06-27T13:16:49.683Z,103392
2019-06-27T13:17:51.034Z,102880
2019-06-27T13:18:52.429Z,98080
2019-06-27T13:19:53.863Z,100160
2019-06-27T13:20:58.236Z,100384
2019-06-27T13:21:56.583Z,100960
2019-06-27T13:22:57.980Z,102080
2019-06-27T13:23:59.407Z,98656
2019-06-27T13:25:00.802Z,99040
2019-06-27T13:26:02.203Z,98656
2019-06-27T13:27:03.593Z,99744
2019-06-27T13:28:04.986Z,98944
2019-06-27T13:29:06.386Z,100224
2019-06-27T13:30:07.968Z,99648
2019-06-27T13:31:09.157Z,100064
2019-06-27T13:32:10.568Z,101504
2019-06-27T13:33:12.001Z,101504
2019-06-27T13:34:13.412Z,100192
2019-06-27T13:35:14.763Z,100832
2019-06-27T13:36:16.159Z,99968
2019-06-27T13:37:17.558Z,100128
2019-06-27T13:38:18.952Z,95616